AirNav   Everest Fuels
 
 1589 users online  

MO94 Starr Airport
Trimble, Missouri, USA

GOING TO TRIMBLE?


FAA INFORMATION EFFECTIVE 07 OCTOBER 2021

Location

FAA Identifier: MO94
Lat/Long: 39-29-59.9920N 094-34-48.8350W
39-29.999867N 094-34.813917W
39.4999978,-94.5802319
(estimated)
Elevation: 1000 ft. / 305 m (estimated)
Variation: 05E (1985)
From city: 2 miles NW of TRIMBLE, MO
Time zone: UTC -5 (UTC -6 during Standard Time)
Zip code: 64492

Airport Operations

Airport use: Private use. Permission required prior to landing
Activation date: 11/1990
Control tower: no
ARTCC: KANSAS CITY CENTER
FSS: COLUMBIA FLIGHT SERVICE STATION
Attendance: UNATNDD
Wind indicator: yes
Segmented circle: no

Airport Communications

WX ASOS at MCI (14 nm SW): PHONE 816-329-2808
WX AWOS-3T at GPH (16 nm SE): 120.275 (816-407-3399)
WX AWOS-3PT at EZZ (20 nm NE): 121.05 (816-933-2124)

Nearby radio navigation aids

VOR radial/distance  VOR name  Freq  Var
MCIr024/14.8KANSAS CITY VORTAC113.2505E
STJr142/31.9ST JOSEPH VORTAC115.5008E
ANXr312/32.1NAPOLEON VORTAC114.0007E
BQSr253/33.5BRAYMER VOR/DME115.3503E

 
NDB name  Hdg/Dist  Freq  Var  ID
AMAZON143/27.623304EAZN .- --.. -.

Airport Services

Runway Information

Runway 17/35

Dimensions: 2640 x 40 ft. / 805 x 12 m
Surface: turf
RUNWAY 17  RUNWAY 35
Traffic pattern: rightright
Displaced threshold: no300 ft.
Obstructions: 20 ft. trees, 520 ft. from runway15 ft. road, 20 ft. from runway

Airport Ownership and Management from official FAA records

Ownership: Privately-owned
Owner: TIMOTHY S. TAYLOR
8894 SW HWY Z
TRIMBLE, MO 64492
Phone (816) 678-9662
Manager: TIMOTHY S. TAYLOR
8894 SW HWY Z
TRIMBLE, MO 64492
Phone (816) 678-9662

Additional Remarks

FOR CD CTC KANSAS CITY APCH AT 816-329-2710.

Instrument Procedures

There are no published instrument procedures at MO94.

Some nearby airports with instrument procedures:

KMCI - Kansas City International Airport (14 nm SW)
KGPH - Midwest National Air Center Airport (16 nm SE)
KFLV - Sherman Army Airfield (17 nm SW)
KEZZ - Cameron Memorial Airport (20 nm NE)
3EX - Excelsior Springs Memorial Airport (20 nm SE)
 
Loc | Ops | Rwys | IFR | FBO | Links
Com | Nav | Svcs | Stats | Notes
Area around MO94 (Starr Airport)
 
Road maps at: MapQuest Bing Google
 
Aerial photo
No photo
 
Sectional chart

 
Airport distance calculator
Flying to Starr Airport? Find the distance to fly.

From to MO94

Sunrise and sunset
Times for 19-Oct-2021
 Local
(UTC-5)
 Zulu
(UTC)
Morning civil twilight07:0612:06
Sunrise07:3412:34
Sunset18:3323:33
Evening civil twilight19:0000:00

Current date and time
Zulu (UTC)  19-Oct-2021 14:54:27
Local (UTC-5)  19-Oct-2021 09:54:27
 
METAR
KMCI 
14nm SW 
191353Z 18015KT 9SM CLR 14/08 A3000 RMK AO2 SLP155 T01440078
KGPH 
16nm SE 
191435Z AUTO 18009KT 10SM CLR 15/07 A3003 RMK AO2
KEZZ 
20nm NE 
191435Z AUTO 17011G15KT 10SM CLR 15/08 A3003 RMK AO2 T01530079
KSTJ 
22nm NW 
191353Z 17009KT 10SM CLR 14/08 A2999 RMK AO2 SLP154 T01440078
KMKC 
23nm S 
191354Z 17009G15KT 10SM CLR 15/07 A3001 RMK AO2 SLP160 T01500067
TAF
KMCI 
14nm SW 
191120Z 1912/2012 17012KT P6SM SCT120 FM191600 17015G25KT P6SM SCT120 FM192300 17012KT P6SM FEW100 FM200600 18012KT P6SM SCT060
NOTAMs
Click for the latest NOTAMs
NOTAMs are issued by the DoD/FAA and will open in a separate window not controlled by AirNav.

 

 
 

Would you like to see your business listed on this page?

 If your business provides an interesting product or service to pilots, flight crews, aircraft, or users of the Starr Airport, you should consider listing it here.  To start the listing process, click on the button below
 
Add a business
 

Other Pages about Starr Airport

Update a link
 
Copyright © AirNav, LLC. All rights reserved. Privacy Policy  Contact